tendersinfo.com alexa rank chart, tendersinfo.com alexa rank daily changes

tendersinfo.com alexa rank chart, tendersinfo.com alexa rank daily changes

tendersinfo.com
Actual rank:
152 090

RANK HISTORY

Date Rank Diff
2017/05/25 152 090 -3 553
2017/05/24 155 643 +496
2017/05/23 155 147 -1 043
2017/05/22 156 190 +8 355
2017/05/21 147 835 +1 215
2017/05/20 146 620 +524
2017/05/19 146 096 +2 022
2017/05/18 144 074 -1 797
2017/05/17 145 871 -2 202
2017/05/16 148 073 -1 325
2017/05/15 149 398 +1 511
2017/05/14 147 887 +134
2017/05/13 147 753 +1 516
2017/05/12 146 237 -1 862
2017/05/11 148 099 +1 476
2017/05/10 146 623 -1 835
2017/05/09 148 458 -194
2017/05/08 148 652 +392
2017/05/07 148 260 -2 507
2017/05/06 150 767 +147
2017/05/05 150 620 -434
2017/05/04 151 054 -1 486
2017/05/03 152 540 +1 180
2017/05/02 151 360 +173
2017/05/01 151 187 +3 394
2017/04/30 147 793 +337
2017/04/29 147 456 -1 299
2017/04/28 148 755 -4 087
2017/04/27 152 842 -268
2017/04/26 153 110 -2 796
2017/04/25 155 906 +2 266
2017/04/24 153 640 -1 204
2017/04/23 154 844 +167
2017/04/22 154 677 -8 679
2017/04/21 163 356 -3 562
2017/04/20 166 918 -1 712
2017/04/19 168 630 -1 841
2017/04/18 170 471 +2 430
2017/04/17 168 041 +1 399
2017/04/16 166 642 +4 407
2017/04/15 162 235 +31
2017/04/14 162 204 -2 412
2017/04/13 164 616 -2 280
2017/04/12 166 896 -262
2017/04/11 167 158 -5 174
2017/04/10 172 332 +3 176
2017/04/09 169 156 +1 578
2017/04/08 167 578 +1 482
2017/04/07 166 096 -2 588
2017/04/06 168 684 -1 552
2017/04/05 170 236 +3 584
2017/04/04 166 652 +3 124
2017/04/03 163 528 +3 336
2017/04/02 160 192 +1 609
2017/04/01 158 583 +810
2017/03/31 157 773 -2 956
2017/03/30 160 729 +786
2017/03/29 159 943 +578
2017/03/28 159 365 +3 251
2017/03/27 156 114 -2 866
2017/03/26 158 980

WIDGET FOR YOUR SITE

DOMAINS WITH THE NEAREST RANK

Domain Rank
meanwell.com 152 085
imcparts.net 152 086
rexx-hr.com 152 087
getitwriteonline.com 152 088
igrasan.ru 152 089
tendersinfo.com 152 090
instagram4you.ru 152 091
touristgah.com 152 092
aerospace.org 152 093
warriorsworld.net 152 094
andrewchen.co 152 095

DOMAINS WITH THE NEAREST RANK BY TLD .com

Domain Rank
adpump.com 152 083
kboi2.com 152 084
meanwell.com 152 085
rexx-hr.com 152 087
getitwriteonline.com 152 088
tendersinfo.com 152 090
touristgah.com 152 092
vietnam-guide.com 152 097
javaws.com 152 100
itechfly.com 152 101
jackcanfield.com 152 102